West End, New York
Current Conditions -  °F | °C
As of 8:55 PM on Friday 19 Dec 2014 (Local Time) from KNY0 Reporting Station
Overcast Overcast  
Wind Chill: -12°   Ceiling: 1400
Heat Index: -6°   Visibility: 10mi
Dew Point: -9°   Wind: 10mph
Humidity: 80%   Direction: 310°NW
Pressure: 30.16"   Gusts: 16mph
Location:  42.4787°N, 75.0181°W
Report Text: KNY0 200155Z AUTO 31009G14KT 10SM OVC014 M06/M09 A3016 RMK AO2 T10571087
Loading
Personal Weather Stations






























Interactive Weather Map New forecast layout! Learn more

10-Day Weather Forecast

Advertisements
Track Severe Weather on mobile